createdAt,value
2022-08-09T00:00:00.074Z,69.65
2022-08-09T00:00:33.608Z,70.07
2022-08-09T00:01:10.504Z,71.22
2022-08-09T00:01:55.310Z,69.80
2022-08-09T00:02:28.477Z,70.18
2022-08-09T00:03:10.748Z,70.72
2022-08-09T00:04:10.699Z,69.55
2022-08-09T00:04:37.116Z,69.13
2022-08-09T00:06:16.437Z,70.05
2022-08-09T00:06:18.423Z,70.95
2022-08-09T00:06:57.841Z,69.97
2022-08-09T00:07:30.359Z,69.93
2022-08-09T00:08:32.072Z,70.28
2022-08-09T00:09:05.573Z,70.32
2022-08-09T00:09:39.530Z,69.90
2022-08-09T00:10:18.020Z,69.45
2022-08-09T00:10:54.135Z,69.95
2022-08-09T00:11:58.431Z,70.22
2022-08-09T00:12:24.220Z,69.95
2022-08-09T00:12:58.145Z,70.78
2022-08-09T00:13:31.739Z,70.03
2022-08-09T00:14:04.982Z,69.72
2022-08-09T00:14:42.919Z,69.93
2022-08-09T00:15:20.153Z,70.70
2022-08-09T00:16:02.867Z,69.63
2022-08-09T00:16:38.556Z,70.95
2022-08-09T00:18:05.943Z,70.35
2022-08-09T00:18:11.844Z,70.22
2022-08-09T00:18:45.486Z,70.25
2022-08-09T00:19:18.961Z,70.43
2022-08-09T00:19:51.496Z,70.45
2022-08-09T00:20:24.823Z,70.88
2022-08-09T00:20:57.289Z,70.65
2022-08-09T00:21:31.443Z,70.25
2022-08-09T00:22:05.666Z,71.53
2022-08-09T00:22:39.360Z,70.07
2022-08-09T00:23:57.173Z,70.13
2022-08-09T00:24:10.342Z,70.43
2022-08-09T00:24:47.513Z,70.72
2022-08-09T00:25:23.512Z,70.50
2022-08-09T00:26:05.810Z,69.85
2022-08-09T00:26:40.214Z,69.70
2022-08-09T00:27:14.176Z,71.15
2022-08-09T00:27:47.963Z,70.03
2022-08-09T00:28:21.323Z,70.50
2022-08-09T00:28:55.143Z,70.78
2022-08-09T00:30:10.465Z,70.83
2022-08-09T00:30:25.336Z,70.38
2022-08-09T00:30:59.180Z,71.65
2022-08-09T00:31:59.027Z,70.07
2022-08-09T00:32:27.154Z,70.30
2022-08-09T00:32:59.890Z,70.60
2022-08-09T00:33:50.699Z,70.88
2022-08-09T00:34:24.276Z,70.85
2022-08-09T00:35:00.195Z,69.90
2022-08-09T00:35:43.411Z,70.18
2022-08-09T00:36:16.275Z,70.68
2022-08-09T00:36:51.929Z,70.65
2022-08-09T00:37:25.977Z,71.55
2022-08-09T00:38:02.969Z,71.40
2022-08-09T00:38:39.265Z,70.68
2022-08-09T00:40:10.421Z,71.03
2022-08-09T00:40:13.967Z,70.65
2022-08-09T00:40:52.564Z,71.07
2022-08-09T00:44:11.268Z,70.22
2022-08-09T00:44:13.636Z,69.72
2022-08-09T00:44:19.479Z,70.93
2022-08-09T00:44:19.579Z,71.05
2022-08-09T00:44:57.886Z,71.45
2022-08-09T00:45:30.908Z,71.13
2022-08-09T00:46:09.465Z,70.43
2022-08-09T00:46:55.907Z,70.38
2022-08-09T00:47:39.571Z,70.55
2022-08-09T00:48:15.316Z,71.03
2022-08-09T00:48:54.410Z,71.47
2022-08-09T00:49:28.241Z,70.45
2022-08-09T00:50:02.952Z,71.07
2022-08-09T00:50:37.685Z,70.63
2022-08-09T00:51:12.979Z,70.40
2022-08-09T00:51:56.111Z,70.63
2022-08-09T00:52:32.152Z,70.28
2022-08-09T00:53:10.249Z,69.55
2022-08-09T00:53:46.429Z,70.68
2022-08-09T00:54:20.021Z,70.95
2022-08-09T00:54:56.233Z,70.93
2022-08-09T00:56:03.179Z,70.47
2022-08-09T00:56:22.657Z,70.65
2022-08-09T00:56:55.150Z,70.40
2022-08-09T00:57:34.677Z,70.78
2022-08-09T00:58:09.527Z,71.28
2022-08-09T00:58:50.554Z,70.22
2022-08-09T00:59:40.928Z,70.55
2022-08-09T01:00:22.011Z,70.82
2022-08-09T01:00:59.021Z,70.63
2022-08-09T01:01:45.170Z,70.25
2022-08-09T01:02:23.148Z,70.97
2022-08-09T01:03:02.713Z,70.25
2022-08-09T01:03:46.480Z,69.75
2022-08-09T01:04:30.395Z,70.88
2022-08-09T01:05:14.025Z,71.17
2022-08-09T01:05:59.615Z,69.20
2022-08-09T01:06:55.565Z,70.93
2022-08-09T01:07:37.570Z,71.10
2022-08-09T01:08:40.534Z,72.05
2022-08-09T01:09:36.820Z,70.22
2022-08-09T01:10:17.566Z,71.18
2022-08-09T01:11:02.086Z,70.65
2022-08-09T01:11:53.269Z,70.63
2022-08-09T01:12:35.216Z,70.15
2022-08-09T01:13:16.904Z,69.97
2022-08-09T01:14:00.182Z,70.80
2022-08-09T01:14:42.204Z,69.85
2022-08-09T01:15:19.566Z,69.97
2022-08-09T01:15:55.181Z,69.97
2022-08-09T01:16:35.239Z,70.38
2022-08-09T01:17:11.635Z,69.82
2022-08-09T01:17:56.764Z,69.55
2022-08-09T01:18:32.225Z,70.25
2022-08-09T01:19:42.552Z,70.20
2022-08-09T01:20:18.111Z,70.18
2022-08-09T01:20:58.586Z,69.93
2022-08-09T01:21:50.952Z,70.43
2022-08-09T01:23:00.885Z,70.07
2022-08-09T01:24:01.869Z,70.10
2022-08-09T01:24:50.401Z,69.38
2022-08-09T01:25:48.851Z,69.85
2022-08-09T01:26:57.168Z,71.00
2022-08-09T01:27:33.350Z,70.20
2022-08-09T01:28:07.555Z,71.05
2022-08-09T01:28:46.600Z,71.03
2022-08-09T01:29:23.026Z,70.65
2022-08-09T01:30:06.633Z,69.75
2022-08-09T01:30:52.179Z,70.35
2022-08-09T01:32:29.646Z,70.78
2022-08-09T01:32:39.190Z,70.13
2022-08-09T01:33:20.857Z,70.35
2022-08-09T01:33:54.979Z,70.68
2022-08-09T01:34:32.289Z,69.95
2022-08-09T01:35:28.213Z,70.43
2022-08-09T01:36:07.336Z,70.43
2022-08-09T01:36:42.205Z,69.55
2022-08-09T01:37:21.865Z,70.18
2022-08-09T01:38:15.833Z,70.07
2022-08-09T01:38:50.668Z,70.47
2022-08-09T01:39:24.898Z,70.47
2022-08-09T01:40:03.744Z,69.68
2022-08-09T01:40:37.213Z,70.35
2022-08-09T01:41:15.057Z,69.88
2022-08-09T01:41:55.923Z,70.45
2022-08-09T01:42:36.514Z,70.82
2022-08-09T01:43:10.064Z,70.90
2022-08-09T01:43:51.927Z,69.87
2022-08-09T01:44:26.732Z,70.75
2022-08-09T01:45:00.542Z,70.60
2022-08-09T01:45:35.556Z,69.63
2022-08-09T01:46:24.710Z,71.15
2022-08-09T01:47:01.665Z,70.70
2022-08-09T01:47:44.817Z,70.03
2022-08-09T01:48:19.439Z,69.38
2022-08-09T01:49:09.699Z,69.72
2022-08-09T01:49:48.882Z,70.35
2022-08-09T01:50:36.594Z,70.82
2022-08-09T01:51:10.753Z,70.53
2022-08-09T01:52:07.380Z,71.53
2022-08-09T01:52:43.398Z,70.40
2022-08-09T01:53:20.065Z,70.20
2022-08-09T01:53:58.127Z,71.00
2022-08-09T01:54:36.061Z,69.28
2022-08-09T01:55:11.207Z,69.77
2022-08-09T01:55:45.586Z,70.05
2022-08-09T01:56:21.701Z,70.22
2022-08-09T01:56:56.841Z,70.07
2022-08-09T01:57:40.151Z,70.40
2022-08-09T01:58:18.554Z,70.78
2022-08-09T01:58:59.130Z,69.85
2022-08-09T01:59:33.923Z,69.95
2022-08-09T02:00:35.916Z,70.22
2022-08-09T02:01:11.169Z,69.75
2022-08-09T02:01:59.103Z,70.97
2022-08-09T02:02:36.778Z,70.88
2022-08-09T02:03:13.770Z,69.95
2022-08-09T02:03:48.386Z,71.07
2022-08-09T02:04:21.969Z,70.07
2022-08-09T02:04:59.426Z,69.78
2022-08-09T02:05:53.681Z,70.10
2022-08-09T02:06:54.384Z,70.68
2022-08-09T02:08:35.795Z,71.13
2022-08-09T02:08:38.438Z,70.05
2022-08-09T02:09:23.827Z,70.30
2022-08-09T02:10:04.059Z,70.82
2022-08-09T02:10:40.330Z,70.25
2022-08-09T02:11:17.024Z,70.97
2022-08-09T02:11:52.210Z,71.13
2022-08-09T02:12:25.353Z,70.70
2022-08-09T02:12:58.864Z,70.15
2022-08-09T02:13:37.530Z,70.18
2022-08-09T02:14:25.145Z,70.28
2022-08-09T02:15:02.163Z,70.55
2022-08-09T02:15:49.236Z,70.55
2022-08-09T02:16:33.694Z,70.22
2022-08-09T02:17:55.021Z,71.57
2022-08-09T02:18:11.792Z,70.60
2022-08-09T02:18:47.769Z,69.78
2022-08-09T02:19:21.205Z,71.13
2022-08-09T02:19:54.396Z,71.30
2022-08-09T02:20:33.952Z,72.20
2022-08-09T02:21:11.259Z,70.70
2022-08-09T02:21:55.687Z,70.53
2022-08-09T02:22:36.190Z,70.32
2022-08-09T02:23:13.387Z,70.83
2022-08-09T02:23:54.634Z,71.32
2022-08-09T02:24:35.130Z,71.50
2022-08-09T02:25:15.183Z,71.30
2022-08-09T02:25:56.885Z,69.65
2022-08-09T02:26:34.711Z,71.07
2022-08-09T02:27:09.645Z,71.43
2022-08-09T02:28:00.489Z,70.85
2022-08-09T02:28:41.523Z,70.88
2022-08-09T02:29:23.040Z,72.22
2022-08-09T02:29:56.985Z,70.93
2022-08-09T02:30:38.091Z,71.93
2022-08-09T02:31:20.421Z,71.45
2022-08-09T02:32:01.758Z,72.05
2022-08-09T02:32:36.922Z,70.68
2022-08-09T02:33:14.377Z,70.88
2022-08-09T02:34:06.560Z,70.70
2022-08-09T02:34:51.905Z,71.00
2022-08-09T02:36:02.649Z,70.70
2022-08-09T02:36:29.830Z,71.78
2022-08-09T02:37:06.947Z,76.13
2022-08-09T02:37:45.370Z,77.80
2022-08-09T02:38:28.953Z,79.95
2022-08-09T02:39:06.527Z,80.65
2022-08-09T02:39:42.721Z,80.00
2022-08-09T02:40:27.097Z,80.13
2022-08-09T02:41:08.590Z,80.07
2022-08-09T02:41:45.647Z,79.57
2022-08-09T02:42:25.169Z,79.85
2022-08-09T02:43:00.493Z,77.65
2022-08-09T02:43:47.764Z,76.45
2022-08-09T02:44:35.705Z,74.97
2022-08-09T02:45:12.153Z,73.53
2022-08-09T02:45:46.955Z,73.82
2022-08-09T02:46:22.265Z,73.82
2022-08-09T02:47:00.211Z,73.28
2022-08-09T02:47:57.377Z,71.82
2022-08-09T02:48:31.225Z,72.07
2022-08-09T02:49:09.003Z,72.20
2022-08-09T02:50:01.210Z,73.22
2022-08-09T02:50:39.541Z,72.78
2022-08-09T02:51:19.832Z,72.05
2022-08-09T02:51:55.657Z,72.40
2022-08-09T02:52:35.241Z,71.93
2022-08-09T02:53:26.382Z,72.13
2022-08-09T02:54:02.916Z,72.28
2022-08-09T02:54:54.027Z,71.75
2022-08-09T02:55:46.193Z,72.75
2022-08-09T02:56:24.137Z,71.50
2022-08-09T02:57:13.581Z,71.40
2022-08-09T02:58:00.376Z,73.43
2022-08-09T02:58:42.451Z,72.25
2022-08-09T02:59:26.387Z,72.00
2022-08-09T03:00:25.408Z,71.82
2022-08-09T03:01:04.412Z,71.40
2022-08-09T03:01:43.258Z,71.40
2022-08-09T03:02:36.282Z,71.75
2022-08-09T03:03:10.256Z,71.22
2022-08-09T03:04:17.476Z,72.05
2022-08-09T03:04:40.660Z,72.28
2022-08-09T03:05:16.643Z,72.20
2022-08-09T03:05:50.485Z,73.45
2022-08-09T03:06:30.402Z,73.88
2022-08-09T03:07:12.363Z,72.38
2022-08-09T03:07:55.095Z,72.32
2022-08-09T03:08:29.461Z,71.63
2022-08-09T03:09:05.061Z,71.55
2022-08-09T03:09:42.688Z,72.65
2022-08-09T03:10:16.547Z,72.30
2022-08-09T03:10:51.438Z,72.22
2022-08-09T03:12:06.287Z,72.63
2022-08-09T03:12:20.832Z,72.95
2022-08-09T03:12:54.722Z,72.50
2022-08-09T03:13:44.033Z,73.45
2022-08-09T03:14:28.119Z,72.18
2022-08-09T03:15:01.499Z,72.38
2022-08-09T03:15:40.505Z,72.35
2022-08-09T03:16:32.220Z,72.20
2022-08-09T03:17:05.659Z,72.85
2022-08-09T03:17:40.251Z,72.18
2022-08-09T03:18:14.506Z,72.40
2022-08-09T03:19:03.368Z,72.07
2022-08-09T03:19:57.860Z,72.70
2022-08-09T03:20:33.386Z,72.60
2022-08-09T03:21:08.917Z,71.13
2022-08-09T03:21:43.605Z,71.55
2022-08-09T03:22:25.523Z,71.55
2022-08-09T03:23:21.127Z,71.97
2022-08-09T03:24:04.348Z,71.70
2022-08-09T03:24:42.634Z,71.65
2022-08-09T03:25:57.016Z,71.72
2022-08-09T03:26:19.206Z,72.25
2022-08-09T03:26:53.533Z,71.72
2022-08-09T03:27:27.944Z,72.95
2022-08-09T03:28:18.830Z,73.90
2022-08-09T03:28:55.390Z,71.65
2022-08-09T03:29:28.707Z,71.85
2022-08-09T03:30:10.980Z,71.88
2022-08-09T03:30:48.966Z,71.85
2022-08-09T03:31:23.090Z,71.78
2022-08-09T03:32:00.278Z,71.63
2022-08-09T03:32:37.171Z,71.57
2022-08-09T03:33:17.361Z,71.38
2022-08-09T03:33:53.359Z,72.00
2022-08-09T03:34:27.152Z,72.00
2022-08-09T03:35:01.612Z,71.60
2022-08-09T03:36:13.715Z,71.57
2022-08-09T03:36:31.067Z,72.03
2022-08-09T03:37:29.220Z,73.40
2022-08-09T03:38:00.004Z,71.07
2022-08-09T03:38:32.732Z,71.80
2022-08-09T03:39:05.533Z,70.97
2022-08-09T03:39:39.671Z,70.38
2022-08-09T03:40:21.951Z,71.70
2022-08-09T03:40:57.924Z,71.25
2022-08-09T03:41:45.860Z,71.22
2022-08-09T03:42:21.377Z,70.80
2022-08-09T03:43:02.568Z,70.50
2022-08-09T03:43:36.549Z,71.30
2022-08-09T03:44:09.238Z,71.70
2022-08-09T03:44:42.834Z,70.95
2022-08-09T03:45:15.685Z,70.82
2022-08-09T03:46:16.067Z,70.93
2022-08-09T03:46:43.038Z,70.65
2022-08-09T03:47:15.874Z,71.55
2022-08-09T03:47:48.825Z,71.32
2022-08-09T03:48:30.635Z,71.82
2022-08-09T03:49:08.852Z,71.18
2022-08-09T03:49:58.436Z,70.95
2022-08-09T03:50:34.387Z,70.28
2022-08-09T03:51:54.125Z,70.85
2022-08-09T03:52:05.180Z,70.60
2022-08-09T03:52:40.558Z,71.35
2022-08-09T03:53:15.340Z,71.07
2022-08-09T03:53:49.454Z,70.40
2022-08-09T03:54:29.251Z,71.00
2022-08-09T03:55:07.792Z,70.50
2022-08-09T03:55:43.641Z,71.50
2022-08-09T03:56:17.421Z,71.20
2022-08-09T03:56:50.510Z,71.70
2022-08-09T03:57:25.724Z,70.25
2022-08-09T03:58:06.691Z,71.35
2022-08-09T03:58:47.652Z,71.03
2022-08-09T03:59:43.050Z,71.45
2022-08-09T04:00:17.060Z,72.13
2022-08-09T04:00:52.054Z,71.03
2022-08-09T04:01:25.087Z,70.55
2022-08-09T04:02:02.009Z,71.03
2022-08-09T04:02:36.201Z,70.60
2022-08-09T04:03:11.804Z,71.13
2022-08-09T04:04:02.241Z,71.75
2022-08-09T04:04:39.126Z,71.25
2022-08-09T04:05:14.454Z,72.32
2022-08-09T04:05:59.524Z,71.07
2022-08-09T04:06:33.167Z,71.68
2022-08-09T04:07:06.592Z,71.13
2022-08-09T04:07:53.581Z,69.75
2022-08-09T04:08:30.820Z,70.70
2022-08-09T04:09:15.085Z,71.10
2022-08-09T04:10:00.117Z,72.05
2022-08-09T04:10:32.808Z,71.45
2022-08-09T04:11:06.057Z,71.85
2022-08-09T04:12:07.486Z,70.70
2022-08-09T04:12:47.106Z,71.40
2022-08-09T04:13:44.971Z,71.30
2022-08-09T04:14:54.258Z,71.70
2022-08-09T04:15:11.456Z,71.97
2022-08-09T04:16:17.771Z,71.85
2022-08-09T04:16:39.654Z,72.32
2022-08-09T04:17:12.150Z,73.25
2022-08-09T04:17:47.539Z,72.00
2022-08-09T04:18:21.443Z,71.68
2022-08-09T04:18:54.518Z,72.03
2022-08-09T04:19:30.357Z,72.25
2022-08-09T04:20:17.721Z,72.70
2022-08-09T04:20:51.782Z,72.38
2022-08-09T04:21:24.266Z,72.82
2022-08-09T04:21:58.650Z,72.15
2022-08-09T04:22:31.751Z,73.72
2022-08-09T04:23:10.049Z,72.53
2022-08-09T04:23:53.837Z,71.93
2022-08-09T04:24:28.077Z,73.57
2022-08-09T04:25:01.348Z,72.85
2022-08-09T04:25:35.756Z,72.68
2022-08-09T04:26:10.118Z,73.30
2022-08-09T04:26:42.562Z,73.63
2022-08-09T04:27:15.027Z,72.78
2022-08-09T04:27:49.378Z,73.70
2022-08-09T04:28:31.488Z,73.80
2022-08-09T04:29:14.726Z,72.50
2022-08-09T04:29:50.137Z,72.10
2022-08-09T04:30:23.351Z,73.28
2022-08-09T04:30:59.792Z,72.53
2022-08-09T04:31:46.844Z,72.63
2022-08-09T04:32:23.752Z,72.15
2022-08-09T04:33:06.362Z,72.50
2022-08-09T04:33:47.507Z,71.88
2022-08-09T04:34:31.823Z,72.97
2022-08-09T04:35:08.560Z,71.93
2022-08-09T04:35:42.799Z,72.38
2022-08-09T04:36:15.397Z,74.20
2022-08-09T04:36:52.948Z,72.28
2022-08-09T04:37:45.807Z,72.82
2022-08-09T04:38:19.441Z,73.10
2022-08-09T04:38:52.291Z,72.97
2022-08-09T04:39:24.907Z,72.78
2022-08-09T04:40:05.742Z,73.10
2022-08-09T04:40:56.341Z,73.82
2022-08-09T04:41:33.355Z,72.97
2022-08-09T04:42:09.196Z,72.75
2022-08-09T04:42:42.086Z,73.75
2022-08-09T04:43:15.804Z,73.07
2022-08-09T04:44:05.561Z,73.18
2022-08-09T04:44:42.280Z,73.90
2022-08-09T04:45:22.999Z,73.28
2022-08-09T04:45:56.183Z,73.05
2022-08-09T04:46:57.221Z,72.72
2022-08-09T04:47:45.068Z,73.88
2022-08-09T04:48:23.961Z,74.32
2022-08-09T04:49:07.102Z,72.85
2022-08-09T04:49:54.242Z,73.40
2022-08-09T04:50:31.677Z,72.68
2022-08-09T04:51:07.739Z,72.63
2022-08-09T04:51:40.249Z,72.63
2022-08-09T04:52:18.455Z,73.82
2022-08-09T04:52:54.698Z,72.80
2022-08-09T04:53:27.246Z,73.68
2022-08-09T04:54:05.276Z,74.45
2022-08-09T04:54:37.924Z,73.88
2022-08-09T04:55:12.765Z,73.38
2022-08-09T04:55:57.950Z,74.25
2022-08-09T04:56:31.075Z,74.75
2022-08-09T04:57:04.254Z,76.50
2022-08-09T04:57:54.238Z,76.25
2022-08-09T04:58:31.923Z,76.75
2022-08-09T04:59:15.499Z,76.22
2022-08-09T04:59:50.280Z,76.32
2022-08-09T05:00:22.953Z,75.68
2022-08-09T05:00:56.718Z,75.57
2022-08-09T05:01:31.125Z,75.68
2022-08-09T05:02:06.376Z,75.00
2022-08-09T05:02:41.790Z,74.65
2022-08-09T05:03:40.322Z,75.70
2022-08-09T05:04:07.221Z,74.07
2022-08-09T05:04:40.877Z,76.07
2022-08-09T05:05:13.442Z,74.65
2022-08-09T05:06:07.534Z,75.45
2022-08-09T05:06:40.247Z,76.55
2022-08-09T05:07:19.265Z,74.88
2022-08-09T05:07:53.624Z,75.13
2022-08-09T05:08:26.129Z,75.53
2022-08-09T05:09:01.449Z,75.03
2022-08-09T05:09:45.561Z,74.30
2022-08-09T05:10:22.546Z,74.82
2022-08-09T05:10:57.128Z,74.63
2022-08-09T05:11:35.532Z,74.43
2022-08-09T05:12:11.177Z,76.10
2022-08-09T05:12:45.104Z,74.20
2022-08-09T05:13:17.786Z,74.57
2022-08-09T05:13:51.250Z,74.13
2022-08-09T05:14:27.650Z,75.80
2022-08-09T05:15:03.547Z,75.03
2022-08-09T05:15:39.357Z,76.82
2022-08-09T05:16:21.764Z,76.20
2022-08-09T05:17:04.447Z,75.80
2022-08-09T05:18:39.876Z,76.47
2022-08-09T05:18:58.625Z,77.07
2022-08-09T05:19:44.592Z,76.45
2022-08-09T05:20:18.595Z,74.82
2022-08-09T05:20:52.949Z,74.75
2022-08-09T05:21:30.439Z,74.65
2022-08-09T05:22:35.863Z,74.72
2022-08-09T05:23:55.577Z,75.68
2022-08-09T05:24:03.747Z,75.35
2022-08-09T05:24:37.261Z,74.93
2022-08-09T05:25:11.283Z,74.50
2022-08-09T05:25:43.751Z,74.63
2022-08-09T05:26:33.907Z,75.35
2022-08-09T05:27:17.138Z,74.95
2022-08-09T05:27:50.768Z,75.03
2022-08-09T05:28:24.447Z,75.45
2022-08-09T05:28:57.116Z,75.55
2022-08-09T05:29:35.425Z,75.60
2022-08-09T05:30:09.861Z,74.93
2022-08-09T05:30:42.480Z,74.95
2022-08-09T05:31:23.548Z,75.18
2022-08-09T05:32:14.822Z,76.53
2022-08-09T05:32:50.837Z,76.35
2022-08-09T05:33:26.314Z,75.65
2022-08-09T05:34:05.575Z,75.88
2022-08-09T05:34:42.919Z,75.93
2022-08-09T05:35:18.296Z,74.38
2022-08-09T05:35:54.322Z,75.57
2022-08-09T05:36:30.564Z,73.65
2022-08-09T05:37:11.428Z,73.78
2022-08-09T05:37:47.609Z,73.75
2022-08-09T05:38:21.967Z,73.70
2022-08-09T05:38:54.807Z,74.00
2022-08-09T05:39:30.019Z,74.30
2022-08-09T05:40:11.233Z,73.93
2022-08-09T05:40:47.633Z,74.55
2022-08-09T05:41:23.151Z,74.43
2022-08-09T05:41:56.843Z,73.97
2022-08-09T05:42:34.580Z,74.05
2022-08-09T05:43:07.505Z,74.10
2022-08-09T05:43:44.971Z,74.65
2022-08-09T05:44:18.032Z,73.88
2022-08-09T05:44:55.792Z,75.07
2022-08-09T05:45:43.451Z,73.35
2022-08-09T05:46:22.770Z,74.35
2022-08-09T05:46:55.212Z,75.07
2022-08-09T05:47:30.184Z,74.13
2022-08-09T05:48:05.085Z,73.90
2022-08-09T05:48:38.653Z,73.38
2022-08-09T05:49:33.888Z,73.88
2022-08-09T05:50:23.279Z,74.18
2022-08-09T05:51:29.799Z,73.85
2022-08-09T05:51:51.493Z,74.03
2022-08-09T05:52:24.921Z,74.60
2022-08-09T05:52:58.862Z,73.28
2022-08-09T05:53:33.208Z,73.10
2022-08-09T05:54:06.108Z,73.63
2022-08-09T05:54:39.703Z,74.60
2022-08-09T05:55:20.631Z,73.65
2022-08-09T05:55:53.940Z,74.72
2022-08-09T05:56:28.765Z,73.70
2022-08-09T05:57:01.340Z,74.43
2022-08-09T05:57:51.383Z,74.00
2022-08-09T05:58:27.612Z,73.78
2022-08-09T05:59:00.119Z,74.45
2022-08-09T05:59:32.889Z,73.45
2022-08-09T06:00:08.817Z,73.57
2022-08-09T06:00:44.592Z,73.65
2022-08-09T06:01:18.060Z,73.22
2022-08-09T06:01:52.090Z,73.10
2022-08-09T06:02:31.799Z,73.78
2022-08-09T06:03:10.801Z,73.55
2022-08-09T06:03:58.125Z,73.63
2022-08-09T06:04:35.039Z,74.43
2022-08-09T06:05:08.783Z,73.82
2022-08-09T06:05:57.037Z,73.55
2022-08-09T06:06:35.090Z,73.32
2022-08-09T06:07:08.021Z,73.43
2022-08-09T06:07:42.895Z,73.15
2022-08-09T06:08:19.107Z,73.45
2022-08-09T06:08:57.636Z,73.75
2022-08-09T06:09:55.045Z,73.80
2022-08-09T06:10:37.787Z,74.10
2022-08-09T06:11:16.491Z,72.95
2022-08-09T06:11:57.392Z,73.07
2022-08-09T06:12:30.913Z,73.13
2022-08-09T06:13:12.266Z,73.68
2022-08-09T06:13:52.939Z,73.72
2022-08-09T06:14:27.071Z,74.10
2022-08-09T06:15:02.265Z,73.90
2022-08-09T06:15:37.061Z,72.82
2022-08-09T06:16:11.227Z,73.38
2022-08-09T06:16:52.370Z,74.40
2022-08-09T06:17:25.053Z,73.63
2022-08-09T06:17:58.527Z,74.18
2022-08-09T06:18:32.479Z,73.75
2022-08-09T06:19:06.893Z,73.82
2022-08-09T06:19:39.613Z,74.13
2022-08-09T06:20:13.076Z,74.05
2022-08-09T06:20:54.839Z,73.05
2022-08-09T06:21:30.454Z,72.70
2022-08-09T06:22:03.923Z,73.30
2022-08-09T06:22:37.363Z,72.82
2022-08-09T06:23:12.000Z,75.10
2022-08-09T06:23:55.140Z,74.20
2022-08-09T06:24:28.855Z,73.45
2022-08-09T06:25:02.309Z,73.57
2022-08-09T06:25:35.030Z,73.63
2022-08-09T06:26:07.749Z,73.25
2022-08-09T06:26:43.676Z,73.28
2022-08-09T06:27:17.984Z,75.40
2022-08-09T06:27:51.341Z,74.15
2022-08-09T06:28:27.557Z,74.72
2022-08-09T06:29:05.387Z,73.35
2022-08-09T06:29:58.336Z,73.55
2022-08-09T06:30:31.245Z,74.50
2022-08-09T06:31:06.001Z,74.35
2022-08-09T06:31:39.317Z,73.90
2022-08-09T06:33:00.824Z,74.05
2022-08-09T06:33:39.720Z,72.63
2022-08-09T06:34:16.667Z,73.57
2022-08-09T06:34:53.050Z,73.07
2022-08-09T06:35:55.834Z,73.90
2022-08-09T06:36:20.308Z,73.53
2022-08-09T06:37:00.417Z,73.25
2022-08-09T06:37:49.881Z,73.25
2022-08-09T06:38:32.290Z,73.72
2022-08-09T06:39:12.637Z,73.20
2022-08-09T06:39:57.819Z,74.00
2022-08-09T06:40:34.288Z,73.43
2022-08-09T06:41:18.415Z,73.93
2022-08-09T06:42:08.832Z,74.57
2022-08-09T06:42:45.003Z,73.47
2022-08-09T06:43:18.753Z,75.53
2022-08-09T06:43:53.057Z,73.85
2022-08-09T06:44:26.553Z,72.60
2022-08-09T06:46:04.233Z,72.88
2022-08-09T06:46:08.100Z,74.18
2022-08-09T06:46:44.633Z,73.68
2022-08-09T06:47:18.184Z,73.43
2022-08-09T06:48:00.865Z,74.60
2022-08-09T06:48:35.297Z,73.53
2022-08-09T06:49:07.873Z,73.63
2022-08-09T06:50:12.663Z,73.68
2022-08-09T06:50:36.249Z,75.10
2022-08-09T06:51:09.091Z,74.07
2022-08-09T06:51:41.988Z,73.15
2022-08-09T06:52:15.891Z,73.78
2022-08-09T06:52:49.130Z,73.55
2022-08-09T06:53:21.735Z,75.80
2022-08-09T06:54:01.034Z,74.35
2022-08-09T06:54:33.773Z,74.00
2022-08-09T06:55:12.824Z,74.95
2022-08-09T06:55:48.378Z,75.47
2022-08-09T06:56:30.548Z,76.78
2022-08-09T06:57:05.066Z,76.50
2022-08-09T06:58:01.714Z,75.00
2022-08-09T07:00:51.245Z,75.28
2022-08-09T07:00:52.864Z,75.38
2022-08-09T07:00:54.267Z,75.10
2022-08-09T07:01:13.377Z,74.93
2022-08-09T07:01:54.351Z,74.70
2022-08-09T07:02:32.159Z,75.57
2022-08-09T07:03:06.308Z,75.20
2022-08-09T07:03:39.614Z,74.97
2022-08-09T07:04:26.889Z,75.57
2022-08-09T07:05:01.272Z,74.82
2022-08-09T07:06:03.055Z,76.85
2022-08-09T07:06:29.724Z,76.47
2022-08-09T07:07:04.891Z,75.05
2022-08-09T07:08:00.331Z,75.45
2022-08-09T07:08:31.188Z,75.30
2022-08-09T07:09:03.885Z,75.80
2022-08-09T07:09:55.438Z,75.28
2022-08-09T07:10:31.991Z,75.50
2022-08-09T07:11:06.665Z,75.43
2022-08-09T07:11:45.515Z,75.63
2022-08-09T07:12:38.048Z,74.75
2022-08-09T07:13:27.731Z,76.18
2022-08-09T07:14:05.617Z,75.72
2022-08-09T07:14:38.791Z,76.10
2022-08-09T07:16:35.058Z,75.65
2022-08-09T07:16:42.521Z,74.85
2022-08-09T07:16:58.691Z,74.47
2022-08-09T07:17:39.864Z,75.22
2022-08-09T07:18:24.851Z,74.70
2022-08-09T07:18:59.694Z,74.60
2022-08-09T07:19:32.259Z,74.95
2022-08-09T07:20:08.725Z,75.68
2022-08-09T07:20:43.679Z,75.07
2022-08-09T07:21:18.041Z,74.40
2022-08-09T07:21:57.148Z,75.13
2022-08-09T07:22:34.735Z,75.75
2022-08-09T07:23:18.539Z,75.30
2022-08-09T07:23:58.006Z,74.90
2022-08-09T07:24:32.286Z,74.88
2022-08-09T07:25:13.571Z,74.23
2022-08-09T07:25:52.500Z,74.15
2022-08-09T07:26:36.378Z,73.55
2022-08-09T07:27:33.113Z,73.78
2022-08-09T07:28:06.090Z,73.00
2022-08-09T07:28:38.827Z,73.95
2022-08-09T07:29:37.879Z,73.47
2022-08-09T07:30:15.253Z,73.15
2022-08-09T07:30:51.900Z,73.60
2022-08-09T07:31:24.972Z,73.20
2022-08-09T07:31:59.634Z,73.67
2022-08-09T07:32:34.588Z,74.97
2022-08-09T07:33:10.295Z,75.15
2022-08-09T07:33:53.187Z,74.70
2022-08-09T07:34:28.384Z,73.50
2022-08-09T07:35:10.412Z,73.50
2022-08-09T07:35:54.174Z,73.82
2022-08-09T07:36:27.673Z,73.20
2022-08-09T07:37:03.545Z,73.82
2022-08-09T07:37:43.172Z,74.00
2022-08-09T07:38:18.254Z,74.40
2022-08-09T07:39:00.463Z,73.85
2022-08-09T07:39:41.498Z,73.78
2022-08-09T07:40:18.864Z,73.45
2022-08-09T07:41:10.994Z,73.90
2022-08-09T07:41:45.822Z,73.47
2022-08-09T07:42:23.689Z,73.45
2022-08-09T07:43:07.056Z,73.15
2022-08-09T07:43:55.928Z,74.38
2022-08-09T07:44:33.016Z,74.47
2022-08-09T07:45:38.417Z,74.70
2022-08-09T07:46:19.211Z,73.22
2022-08-09T07:46:52.307Z,73.40
2022-08-09T07:47:24.889Z,73.15
2022-08-09T07:48:01.529Z,72.78
2022-08-09T07:48:37.112Z,72.28
2022-08-09T07:49:15.512Z,72.80
2022-08-09T07:50:04.300Z,72.40
2022-08-09T07:50:43.233Z,72.93
2022-08-09T07:52:04.715Z,72.40
2022-08-09T07:52:19.346Z,72.45
2022-08-09T07:52:53.404Z,72.38
2022-08-09T07:53:36.418Z,72.38
2022-08-09T07:54:28.098Z,72.82
2022-08-09T07:55:08.853Z,72.90
2022-08-09T07:56:03.399Z,72.70
2022-08-09T07:56:36.995Z,72.95
2022-08-09T07:57:20.390Z,72.97
2022-08-09T07:57:52.896Z,72.90
2022-08-09T07:58:26.860Z,73.32
2022-08-09T07:58:59.839Z,72.97
2022-08-09T07:59:45.932Z,73.28
2022-08-09T08:00:35.869Z,72.83
2022-08-09T08:01:11.083Z,72.85
2022-08-09T08:01:52.877Z,72.68
2022-08-09T08:02:26.095Z,72.65
2022-08-09T08:03:00.959Z,73.55
2022-08-09T08:03:37.398Z,74.00
2022-08-09T08:04:10.313Z,72.85
2022-08-09T08:04:48.930Z,72.70
2022-08-09T08:05:21.837Z,73.03
2022-08-09T08:05:57.742Z,73.75
2022-08-09T08:06:32.710Z,73.93
2022-08-09T08:07:14.696Z,73.32
2022-08-09T08:08:44.047Z,72.35
2022-08-09T08:09:03.815Z,72.90
2022-08-09T08:09:45.745Z,73.45
2022-08-09T08:10:27.197Z,72.80
2022-08-09T08:12:08.609Z,73.43
2022-08-09T08:12:24.942Z,72.85
2022-08-09T08:12:47.522Z,73.00
2022-08-09T08:13:23.652Z,73.18
2022-08-09T08:13:57.570Z,73.47
2022-08-09T08:14:31.310Z,73.40
2022-08-09T08:15:04.513Z,73.28
2022-08-09T08:15:39.296Z,73.45
2022-08-09T08:16:31.304Z,73.13
2022-08-09T08:17:08.775Z,73.10
2022-08-09T08:17:54.719Z,72.63
2022-08-09T08:18:31.600Z,72.68
2022-08-09T08:19:04.685Z,72.75
2022-08-09T08:19:37.654Z,74.38
2022-08-09T08:20:13.690Z,73.68
2022-08-09T08:20:46.570Z,73.82
2022-08-09T08:21:22.509Z,73.47
2022-08-09T08:21:55.465Z,73.35
2022-08-09T08:22:29.050Z,73.10
2022-08-09T08:23:16.057Z,72.75
2022-08-09T08:23:56.079Z,73.22
2022-08-09T08:24:35.259Z,72.93
2022-08-09T08:25:14.443Z,72.80
2022-08-09T08:25:50.440Z,73.35
2022-08-09T08:26:41.936Z,72.40
2022-08-09T08:27:20.443Z,72.50
2022-08-09T08:27:59.722Z,72.53
2022-08-09T08:28:33.088Z,73.07
2022-08-09T08:29:06.845Z,72.75
2022-08-09T08:29:48.518Z,72.32
2022-08-09T08:30:23.746Z,72.53
2022-08-09T08:31:13.681Z,72.75
2022-08-09T08:32:03.183Z,72.68
2022-08-09T08:32:36.760Z,72.53
2022-08-09T08:33:25.959Z,72.25